createdAt,value
2019-05-17T00:02:10.975Z,77.42
2019-05-17T00:04:38.099Z,77.37
2019-05-17T00:07:06.613Z,77.21
2019-05-17T00:09:33.938Z,76.84
2019-05-17T00:12:01.142Z,76.64
2019-05-17T00:14:28.694Z,76.35
2019-05-17T00:16:57.284Z,76.54
2019-05-17T00:19:26.309Z,76.36
2019-05-17T00:21:53.518Z,76.27
2019-05-17T00:24:20.804Z,76.31
2019-05-17T00:26:48.079Z,76.25
2019-05-17T00:29:17.300Z,76.24
2019-05-17T00:31:46.178Z,76.27
2019-05-17T00:34:13.711Z,76.08
2019-05-17T00:36:40.835Z,76.02
2019-05-17T00:39:08.082Z,76.24
2019-05-17T00:41:37.443Z,76.09
2019-05-17T00:44:06.307Z,76.04
2019-05-17T00:46:33.608Z,76.14
2019-05-17T00:49:00.818Z,76.02
2019-05-17T00:51:28.031Z,75.96
2019-05-17T00:53:56.212Z,76.01
2019-05-17T00:56:23.521Z,75.91
2019-05-17T00:58:50.711Z,76.01
2019-05-17T01:01:18.007Z,76.10
2019-05-17T01:03:47.547Z,75.33
2019-05-17T01:06:16.784Z,75.67
2019-05-17T01:08:43.796Z,76.02
2019-05-17T01:11:11.014Z,76.28
2019-05-17T01:13:38.195Z,75.73
2019-05-17T01:16:07.301Z,75.80
2019-05-17T01:18:36.165Z,75.72
2019-05-17T01:21:03.346Z,75.79
2019-05-17T01:23:30.612Z,75.87
2019-05-17T01:25:57.834Z,75.49
2019-05-17T01:28:26.989Z,75.83
2019-05-17T01:30:54.241Z,76.15
2019-05-17T01:33:21.388Z,76.11
2019-05-17T01:35:48.511Z,76.07
2019-05-17T01:38:17.703Z,76.22
2019-05-17T01:40:46.367Z,75.91
2019-05-17T01:43:13.614Z,75.84
2019-05-17T01:45:41.133Z,75.78
2019-05-17T01:48:08.211Z,75.65
2019-05-17T01:50:37.456Z,75.80
2019-05-17T01:53:04.590Z,75.79
2019-05-17T01:55:31.698Z,76.11
2019-05-17T01:57:58.915Z,76.07
2019-05-17T02:00:26.671Z,76.01
2019-05-17T02:02:54.826Z,75.96
2019-05-17T02:05:22.020Z,75.68
2019-05-17T02:07:49.493Z,75.89
2019-05-17T02:10:18.023Z,75.93
2019-05-17T02:12:48.746Z,76.17
2019-05-17T02:15:18.185Z,75.81
2019-05-17T02:17:46.914Z,75.83
2019-05-17T02:20:16.858Z,75.83
2019-05-17T02:22:43.710Z,76.23
2019-05-17T02:25:11.386Z,76.27
2019-05-17T02:27:41.902Z,76.16
2019-05-17T02:30:14.025Z,76.10
2019-05-17T02:32:43.093Z,76.29
2019-05-17T02:35:14.316Z,76.49
2019-05-17T02:37:43.309Z,76.57
2019-05-17T02:40:14.567Z,76.59
2019-05-17T02:42:43.116Z,76.58
2019-05-17T02:45:09.426Z,76.80
2019-05-17T02:47:36.921Z,77.16
2019-05-17T02:50:05.957Z,77.37
2019-05-17T02:52:33.220Z,77.59
2019-05-17T02:55:03.672Z,77.85
2019-05-17T02:57:29.654Z,78.02
2019-05-17T02:59:56.857Z,78.24
2019-05-17T03:02:27.729Z,78.50
2019-05-17T03:04:53.445Z,78.66
2019-05-17T03:07:23.251Z,78.47
2019-05-17T03:09:49.733Z,77.52
2019-05-17T03:12:16.934Z,78.17
2019-05-17T03:14:44.095Z,78.57
2019-05-17T03:17:14.061Z,79.20
2019-05-17T03:19:43.589Z,79.17
2019-05-17T03:22:12.882Z,79.25
2019-05-17T03:24:38.715Z,79.25
2019-05-17T03:27:05.911Z,79.38
2019-05-17T03:29:33.651Z,79.12
2019-05-17T03:32:08.071Z,79.07
2019-05-17T03:34:36.409Z,79.44
2019-05-17T03:37:05.465Z,79.17
2019-05-17T03:39:29.142Z,79.44
2019-05-17T03:41:56.428Z,79.63
2019-05-17T03:44:23.677Z,79.49
2019-05-17T03:46:53.256Z,79.43
2019-05-17T03:49:22.385Z,79.28
2019-05-17T03:51:53.199Z,79.49
2019-05-17T03:54:22.672Z,79.78
2019-05-17T03:56:53.014Z,79.59
2019-05-17T03:59:18.826Z,78.98
2019-05-17T04:01:46.020Z,79.11
2019-05-17T04:04:13.610Z,78.77
2019-05-17T04:06:43.505Z,78.55
2019-05-17T04:09:13.404Z,78.58
2019-05-17T04:11:39.120Z,78.72
2019-05-17T04:14:06.265Z,78.66
2019-05-17T04:16:34.142Z,78.48
2019-05-17T04:19:03.186Z,78.85
2019-05-17T04:21:33.901Z,78.45
2019-05-17T04:24:02.986Z,79.11
2019-05-17T04:26:28.708Z,78.91
2019-05-17T04:28:55.933Z,78.94
2019-05-17T04:31:23.158Z,78.72
2019-05-17T04:33:53.347Z,78.91
2019-05-17T04:36:22.256Z,78.95
2019-05-17T04:38:48.802Z,78.48
2019-05-17T04:41:16.000Z,77.83
2019-05-17T04:43:43.205Z,77.74
2019-05-17T04:46:12.921Z,77.70
2019-05-17T04:48:39.474Z,77.33
2019-05-17T04:51:06.559Z,77.06
2019-05-17T04:53:33.847Z,77.02
2019-05-17T04:56:03.150Z,76.22
2019-05-17T04:58:33.560Z,75.99
2019-05-17T05:00:59.929Z,74.65
2019-05-17T05:03:27.066Z,74.83
2019-05-17T05:05:54.186Z,74.47
2019-05-17T05:08:22.439Z,74.18
2019-05-17T05:10:53.165Z,74.83
2019-05-17T05:13:18.939Z,75.28
2019-05-17T05:15:46.178Z,74.44
2019-05-17T05:18:13.800Z,74.64
2019-05-17T05:20:43.470Z,74.79
2019-05-17T05:23:13.014Z,75.37
2019-05-17T05:25:39.553Z,75.69
2019-05-17T05:28:06.770Z,75.83
2019-05-17T05:30:34.029Z,76.03
2019-05-17T05:33:02.041Z,76.28
2019-05-17T05:35:29.287Z,76.15
2019-05-17T05:37:56.572Z,75.77
2019-05-17T05:40:23.787Z,75.42
2019-05-17T05:42:51.607Z,74.93
2019-05-17T05:45:18.884Z,75.00
2019-05-17T05:47:46.024Z,74.78
2019-05-17T05:50:13.387Z,74.86
2019-05-17T06:02:21.765Z,74.71
2019-05-17T06:04:51.684Z,74.52
2019-05-17T06:07:18.301Z,74.27
2019-05-17T06:09:45.499Z,74.16
2019-05-17T06:12:22.914Z,73.29
2019-05-17T06:14:42.206Z,72.97
2019-05-17T06:17:09.418Z,73.17
2019-05-17T06:19:36.594Z,72.50
2019-05-17T06:22:04.097Z,72.14
2019-05-17T06:24:31.926Z,71.60
2019-05-17T06:26:59.172Z,70.84
2019-05-17T06:29:26.411Z,70.89
2019-05-17T06:31:53.842Z,71.14
2019-05-17T06:34:22.304Z,71.71
2019-05-17T06:36:49.629Z,72.08
2019-05-17T06:39:16.839Z,72.28
2019-05-17T06:41:44.015Z,72.35
2019-05-17T06:44:12.176Z,71.89
2019-05-17T06:46:41.920Z,72.00
2019-05-17T06:49:08.688Z,72.24
2019-05-17T06:51:35.872Z,71.68
2019-05-17T06:54:03.360Z,71.82
2019-05-17T06:56:32.192Z,71.82
2019-05-17T06:58:59.840Z,71.86
2019-05-17T07:01:29.138Z,71.96
2019-05-17T07:03:56.140Z,71.89
2019-05-17T07:06:25.245Z,71.26
2019-05-17T07:08:52.373Z,71.25
2019-05-17T07:11:21.098Z,71.53
2019-05-17T07:13:49.592Z,71.71
2019-05-17T07:16:16.874Z,71.24
2019-05-17T07:18:43.925Z,71.41
2019-05-17T07:21:11.121Z,71.08
2019-05-17T07:23:39.647Z,70.81
2019-05-17T07:26:09.197Z,70.69
2019-05-17T07:28:36.077Z,70.73
2019-05-17T07:31:03.501Z,70.13
2019-05-17T07:33:30.740Z,69.64
2019-05-17T07:35:59.537Z,69.11
2019-05-17T07:38:26.932Z,68.56
2019-05-17T07:40:54.121Z,68.46
2019-05-17T07:43:21.289Z,68.60
2019-05-17T07:45:49.616Z,68.85
2019-05-17T07:48:17.119Z,67.73
2019-05-17T07:50:44.326Z,67.13
2019-05-17T07:53:11.755Z,66.67
2019-05-17T07:55:39.814Z,66.30
2019-05-17T07:58:09.714Z,65.99
2019-05-17T08:00:36.510Z,65.81
2019-05-17T08:03:03.695Z,65.61
2019-05-17T08:05:30.798Z,65.65
2019-05-17T08:08:00.009Z,65.27
2019-05-17T08:10:29.813Z,64.91
2019-05-17T08:12:56.726Z,63.70
2019-05-17T08:15:24.062Z,63.77
2019-05-17T08:17:51.167Z,62.79
2019-05-17T08:20:20.386Z,62.48
2019-05-17T08:22:50.048Z,61.88
2019-05-17T08:25:17.029Z,61.36
2019-05-17T08:27:44.245Z,59.32
2019-05-17T08:30:12.634Z,59.02
2019-05-17T08:32:40.455Z,58.95
2019-05-17T08:35:10.570Z,57.49
2019-05-17T08:37:36.949Z,57.08
2019-05-17T08:40:04.384Z,57.04
2019-05-17T08:42:31.473Z,55.44
2019-05-17T08:45:00.232Z,52.97
2019-05-17T08:47:29.879Z,50.22
2019-05-17T08:49:56.661Z,46.15
2019-05-17T08:52:23.887Z,41.52
2019-05-17T08:54:51.105Z,38.85
2019-05-17T08:57:20.534Z,37.58
2019-05-17T08:59:49.605Z,36.38
2019-05-17T09:02:16.663Z,38.14
2019-05-17T09:04:43.832Z,38.31
2019-05-17T09:07:11.134Z,38.54
2019-05-17T09:09:39.494Z,37.73
2019-05-17T09:12:06.788Z,36.38
2019-05-17T09:14:34.133Z,38.55
2019-05-17T09:17:01.365Z,38.03
2019-05-17T09:19:29.967Z,37.80
2019-05-17T09:21:59.747Z,37.31
2019-05-17T09:24:26.993Z,38.14
2019-05-17T09:26:54.274Z,37.83
2019-05-17T09:29:21.401Z,37.75
2019-05-17T09:31:50.494Z,38.97
2019-05-17T09:34:17.759Z,39.23
2019-05-17T09:36:45.008Z,39.79
2019-05-17T09:39:12.187Z,39.82
2019-05-17T09:41:39.900Z,38.74
2019-05-17T09:44:13.045Z,37.88
2019-05-17T09:46:36.722Z,36.50
2019-05-17T09:49:04.100Z,34.36
2019-05-17T09:51:31.461Z,33.44
2019-05-17T09:54:00.030Z,33.13
2019-05-17T09:56:29.910Z,34.24
2019-05-17T09:58:57.313Z,34.39
2019-05-17T10:01:24.513Z,33.38
2019-05-17T10:03:51.777Z,32.30
2019-05-17T10:06:20.055Z,32.46
2019-05-17T10:08:49.341Z,34.13
2019-05-17T10:11:16.797Z,35.50
2019-05-17T10:13:44.007Z,35.34
2019-05-17T10:16:11.163Z,33.78
2019-05-17T10:18:40.085Z,33.05
2019-05-17T10:21:07.309Z,33.53
2019-05-17T10:23:34.507Z,35.60
2019-05-17T10:26:02.279Z,37.96
2019-05-17T10:28:29.791Z,38.79
2019-05-17T10:30:57.046Z,39.90
2019-05-17T10:33:24.212Z,39.84
2019-05-17T10:35:51.443Z,39.04
2019-05-17T10:38:19.511Z,39.39
2019-05-17T10:40:47.282Z,40.48
2019-05-17T10:43:14.488Z,42.53
2019-05-17T10:45:41.711Z,44.05
2019-05-17T10:48:10.238Z,43.37
2019-05-17T10:50:40.432Z,42.87
2019-05-17T10:53:06.796Z,42.29
2019-05-17T10:55:34.007Z,42.25
2019-05-17T10:58:01.262Z,43.38
2019-05-17T11:00:30.310Z,42.72
2019-05-17T11:03:00.216Z,41.82
2019-05-17T11:05:26.927Z,41.48
2019-05-17T11:07:54.128Z,41.20
2019-05-17T11:10:21.426Z,41.21
2019-05-17T11:12:48.744Z,40.40
2019-05-17T11:15:16.004Z,40.61
2019-05-17T11:17:43.079Z,41.20
2019-05-17T11:20:11.210Z,39.97
2019-05-17T11:22:38.428Z,40.01
2019-05-17T11:25:06.571Z,37.90
2019-05-17T11:27:33.804Z,37.83
2019-05-17T11:30:01.008Z,38.27
2019-05-17T11:32:28.188Z,38.45
2019-05-17T11:34:55.664Z,38.63
2019-05-17T11:37:25.428Z,39.31
2019-05-17T11:39:52.560Z,38.32
2019-05-17T11:42:19.932Z,38.73
2019-05-17T11:44:47.031Z,39.24
2019-05-17T11:47:14.368Z,39.42
2019-05-17T11:49:41.609Z,40.08
2019-05-17T11:52:08.822Z,40.88
2019-05-17T11:54:36.488Z,41.55
2019-05-17T11:57:03.761Z,41.50
2019-05-17T11:59:30.996Z,41.12
2019-05-17T12:01:58.306Z,40.77
2019-05-17T12:04:25.526Z,40.29
2019-05-17T12:06:52.742Z,40.33
2019-05-17T12:09:20.111Z,40.00
2019-05-17T12:11:47.488Z,39.95
2019-05-17T12:14:14.862Z,40.70
2019-05-17T12:16:42.562Z,41.40
2019-05-17T12:19:10.238Z,42.21
2019-05-17T12:21:37.461Z,43.57
2019-05-17T12:24:04.816Z,43.67
2019-05-17T12:26:32.208Z,43.82
2019-05-17T12:28:59.903Z,43.63
2019-05-17T12:31:28.198Z,43.39
2019-05-17T12:33:55.642Z,43.42
2019-05-17T12:36:22.969Z,42.22
2019-05-17T12:38:50.314Z,42.54
2019-05-17T12:41:17.808Z,42.03
2019-05-17T12:43:45.171Z,42.60
2019-05-17T12:46:12.505Z,42.68
2019-05-17T12:48:40.220Z,43.25
2019-05-17T12:51:07.516Z,43.17
2019-05-17T12:53:34.721Z,42.93
2019-05-17T12:56:01.907Z,42.83
2019-05-17T12:58:29.228Z,41.90
2019-05-17T13:00:56.486Z,41.81
2019-05-17T13:03:23.643Z,42.08
2019-05-17T13:05:52.097Z,41.69
2019-05-17T13:08:19.212Z,41.76
2019-05-17T13:10:46.442Z,40.40
2019-05-17T13:13:13.737Z,40.30
2019-05-17T13:15:40.938Z,40.76
2019-05-17T13:18:08.066Z,41.21
2019-05-17T13:20:35.154Z,41.01
2019-05-17T13:23:02.863Z,41.21
2019-05-17T13:25:30.369Z,40.79
2019-05-17T13:27:57.587Z,41.01
2019-05-17T13:30:24.778Z,40.08
2019-05-17T13:32:52.323Z,40.09
2019-05-17T13:35:19.480Z,40.74
2019-05-17T13:37:46.676Z,41.46
2019-05-17T13:40:14.082Z,40.99
2019-05-17T13:42:41.320Z,40.83
2019-05-17T13:45:09.592Z,40.38
2019-05-17T13:47:36.967Z,39.22
2019-05-17T13:50:04.966Z,39.27
2019-05-17T13:52:32.166Z,39.70
2019-05-17T13:54:59.363Z,40.08
2019-05-17T13:57:26.587Z,40.77
2019-05-17T13:59:53.758Z,41.14
2019-05-17T14:02:21.034Z,41.11
2019-05-17T14:04:48.114Z,41.49
2019-05-17T14:07:15.324Z,41.21
2019-05-17T14:09:42.556Z,39.87
2019-05-17T14:12:09.757Z,39.76
2019-05-17T14:14:36.986Z,40.04
2019-05-17T14:17:04.170Z,40.21
2019-05-17T14:19:31.503Z,40.06
2019-05-17T14:21:58.710Z,40.07
2019-05-17T14:24:25.929Z,40.06
2019-05-17T14:26:53.183Z,39.20
2019-05-17T14:29:20.758Z,39.23
2019-05-17T14:31:48.128Z,39.56
2019-05-17T14:34:15.386Z,39.54
2019-05-17T14:36:42.571Z,39.21
2019-05-17T14:39:09.804Z,39.26
2019-05-17T14:41:37.127Z,39.22
2019-05-17T14:44:04.320Z,39.04
2019-05-17T14:46:31.578Z,38.38
2019-05-17T14:48:58.759Z,38.29
2019-05-17T14:51:26.557Z,37.68
2019-05-17T14:53:53.819Z,37.58
2019-05-17T14:56:21.081Z,37.90
2019-05-17T14:58:48.256Z,38.78
2019-05-17T15:01:15.499Z,38.33
2019-05-17T15:03:42.723Z,38.10
2019-05-17T15:06:09.948Z,37.55
2019-05-17T15:08:37.121Z,37.13
2019-05-17T15:11:04.286Z,37.07
2019-05-17T15:13:31.541Z,38.37
2019-05-17T15:15:58.789Z,39.27
2019-05-17T15:18:25.966Z,39.31
2019-05-17T15:20:53.110Z,39.50
2019-05-17T15:23:20.336Z,39.94
2019-05-17T15:25:47.617Z,39.97
2019-05-17T15:28:14.806Z,39.78
2019-05-17T15:30:42.093Z,39.89
2019-05-17T15:33:09.569Z,39.75
2019-05-17T15:35:36.715Z,39.27
2019-05-17T15:38:04.009Z,39.24
2019-05-17T15:40:31.224Z,40.32
2019-05-17T15:42:58.399Z,40.73
2019-05-17T15:45:25.639Z,41.63
2019-05-17T15:47:52.767Z,41.41
2019-05-17T15:50:20.213Z,41.45
2019-05-17T15:52:47.407Z,41.70
2019-05-17T15:55:14.724Z,42.08
2019-05-17T15:57:41.903Z,41.67
2019-05-17T16:00:10.048Z,41.91
2019-05-17T16:02:37.263Z,41.95
2019-05-17T16:05:05.389Z,42.04
2019-05-17T16:07:32.615Z,42.71
2019-05-17T16:09:59.850Z,43.22
2019-05-17T16:13:00.935Z,43.55
2019-05-17T16:15:15.728Z,43.76
2019-05-17T16:17:42.800Z,43.94
2019-05-17T16:20:10.520Z,44.13
2019-05-17T16:22:37.812Z,43.95
2019-05-17T16:25:05.395Z,43.91
2019-05-17T16:27:32.648Z,44.19
2019-05-17T16:30:00.119Z,44.51
2019-05-17T16:32:27.348Z,44.61
2019-05-17T16:34:54.480Z,44.80
2019-05-17T16:37:21.578Z,44.67
2019-05-17T16:39:49.094Z,44.68
2019-05-17T16:42:16.466Z,44.91
2019-05-17T16:44:43.682Z,45.03
2019-05-17T16:47:11.691Z,45.23
2019-05-17T16:49:39.009Z,45.38
2019-05-17T16:52:06.239Z,45.34
2019-05-17T16:54:33.530Z,45.40
2019-05-17T16:57:00.769Z,45.46
2019-05-17T16:59:28.355Z,45.80
2019-05-17T17:01:55.846Z,45.49
2019-05-17T17:04:23.698Z,45.75
2019-05-17T17:06:50.895Z,45.70
2019-05-17T17:09:18.113Z,45.82
2019-05-17T17:11:45.820Z,46.00
2019-05-17T17:14:13.042Z,46.48
2019-05-17T17:16:40.285Z,46.34
2019-05-17T17:19:07.460Z,46.12
2019-05-17T17:21:34.693Z,46.23
2019-05-17T17:24:01.806Z,46.10
2019-05-17T17:26:29.122Z,45.88
2019-05-17T17:28:56.345Z,45.54
2019-05-17T17:31:23.795Z,45.43
2019-05-17T17:33:50.977Z,45.37
2019-05-17T17:36:19.527Z,45.60
2019-05-17T17:38:47.088Z,45.96
2019-05-17T17:41:14.372Z,46.26
2019-05-17T17:43:41.576Z,46.53
2019-05-17T17:46:08.792Z,46.71
2019-05-17T17:48:36.028Z,46.77
2019-05-17T17:51:03.241Z,46.80
2019-05-17T17:53:31.096Z,46.82
2019-05-17T17:55:58.270Z,46.43
2019-05-17T17:58:25.430Z,46.91
2019-05-17T18:00:52.541Z,46.46
2019-05-17T18:03:19.735Z,46.38
2019-05-17T18:05:46.893Z,46.50
2019-05-17T18:08:14.132Z,46.88
2019-05-17T18:10:41.304Z,46.85
2019-05-17T18:13:08.474Z,47.01
2019-05-17T18:15:41.330Z,47.44
2019-05-17T18:18:08.598Z,47.76
2019-05-17T18:20:35.706Z,47.81
2019-05-17T18:23:03.153Z,48.15
2019-05-17T18:25:30.370Z,48.53
2019-05-17T18:27:57.586Z,48.99
2019-05-17T18:30:24.703Z,49.39
2019-05-17T18:32:51.944Z,49.67
2019-05-17T18:35:19.682Z,49.92
2019-05-17T18:37:47.186Z,50.45
2019-05-17T18:40:14.398Z,50.80
2019-05-17T18:42:41.569Z,51.21
2019-05-17T18:45:09.057Z,51.76
2019-05-17T18:47:36.257Z,51.99
2019-05-17T18:50:03.850Z,52.42
2019-05-17T18:52:31.329Z,52.72
2019-05-17T18:54:58.585Z,53.11
2019-05-17T18:57:26.104Z,53.55
2019-05-17T18:59:53.316Z,54.09
2019-05-17T19:02:20.521Z,54.59
2019-05-17T19:04:47.699Z,55.05
2019-05-17T19:07:14.911Z,55.11
2019-05-17T19:09:42.443Z,55.51
2019-05-17T19:12:09.631Z,55.92
2019-05-17T19:14:43.087Z,56.17
2019-05-17T19:17:05.957Z,56.63
2019-05-17T19:19:33.409Z,56.95
2019-05-17T19:22:00.621Z,57.33
2019-05-17T19:24:28.052Z,57.46
2019-05-17T19:26:55.550Z,57.77
2019-05-17T19:29:22.644Z,58.15
2019-05-17T19:31:49.979Z,58.53
2019-05-17T19:34:17.088Z,58.79
2019-05-17T19:36:44.274Z,58.58
2019-05-17T19:39:11.804Z,59.32
2019-05-17T19:41:39.020Z,59.46
2019-05-17T19:44:06.250Z,59.83
2019-05-17T19:46:34.702Z,59.88
2019-05-17T19:49:01.798Z,60.11
2019-05-17T19:51:29.072Z,60.19
2019-05-17T19:53:56.364Z,60.36
2019-05-17T19:56:23.820Z,60.38
2019-05-17T19:58:51.021Z,60.28
2019-05-17T20:01:18.276Z,60.41
2019-05-17T20:03:46.086Z,60.47
2019-05-17T20:06:13.559Z,60.61
2019-05-17T20:08:40.762Z,60.55
2019-05-17T20:11:07.840Z,60.61
2019-05-17T20:13:35.008Z,60.63
2019-05-17T20:16:02.155Z,60.66
2019-05-17T20:18:29.654Z,60.81
2019-05-17T20:20:56.780Z,60.43
2019-05-17T20:23:24.312Z,60.11
2019-05-17T20:25:51.513Z,58.96
2019-05-17T20:28:18.948Z,59.46
2019-05-17T20:30:46.200Z,59.79
2019-05-17T20:33:13.273Z,59.62
2019-05-17T20:35:40.387Z,59.71
2019-05-17T20:38:07.608Z,59.52
2019-05-17T20:40:35.134Z,59.42
2019-05-17T20:43:02.344Z,59.64
2019-05-17T20:45:33.047Z,59.60
2019-05-17T20:47:58.894Z,59.69
2019-05-17T20:50:26.106Z,59.83
2019-05-17T20:52:53.239Z,60.01
2019-05-17T20:55:20.499Z,59.88
2019-05-17T20:57:47.700Z,60.12
2019-05-17T21:00:15.425Z,59.64
2019-05-17T21:02:42.700Z,59.88
2019-05-17T21:05:12.077Z,60.15
2019-05-17T21:07:39.326Z,60.61
2019-05-17T21:10:07.039Z,61.14
2019-05-17T21:12:34.243Z,61.70
2019-05-17T21:15:01.456Z,62.24
2019-05-17T21:17:28.652Z,62.74
2019-05-17T21:19:55.848Z,63.41
2019-05-17T21:22:23.072Z,63.97
2019-05-17T21:24:50.259Z,65.18
2019-05-17T21:27:17.441Z,65.43
2019-05-17T21:29:44.975Z,66.68
2019-05-17T21:32:12.134Z,67.49
2019-05-17T21:34:39.213Z,67.91
2019-05-17T21:37:06.754Z,68.24
2019-05-17T21:39:33.829Z,68.78
2019-05-17T21:42:01.252Z,69.00
2019-05-17T21:44:28.469Z,69.96
2019-05-17T21:47:04.331Z,69.81
2019-05-17T21:49:24.685Z,70.61
2019-05-17T21:51:51.969Z,70.91
2019-05-17T21:54:19.144Z,71.49
2019-05-17T21:56:46.290Z,71.82
2019-05-17T21:59:13.579Z,71.82
2019-05-17T22:01:40.795Z,72.18
2019-05-17T22:04:08.365Z,72.67
2019-05-17T22:06:35.960Z,72.93
2019-05-17T22:09:05.535Z,73.08
2019-05-17T22:11:33.482Z,73.63
2019-05-17T22:14:00.690Z,73.24
2019-05-17T22:16:28.105Z,73.21
2019-05-17T22:18:55.322Z,73.26
2019-05-17T22:21:22.422Z,73.30
2019-05-17T22:23:49.589Z,72.98
2019-05-17T22:26:16.836Z,72.88
2019-05-17T22:28:44.008Z,72.76
2019-05-17T22:31:11.191Z,72.47
2019-05-17T22:33:38.397Z,72.00
2019-05-17T22:36:05.766Z,72.10
2019-05-17T22:38:32.929Z,71.96
2019-05-17T22:41:00.161Z,71.19
2019-05-17T22:43:27.455Z,71.17
2019-05-17T22:45:54.642Z,71.78
2019-05-17T22:48:21.773Z,71.93
2019-05-17T22:50:48.889Z,72.32
2019-05-17T22:53:16.111Z,72.64
2019-05-17T22:55:43.305Z,73.21
2019-05-17T22:58:10.451Z,73.40
2019-05-17T23:00:37.699Z,73.79
2019-05-17T23:03:04.775Z,74.07
2019-05-17T23:05:31.864Z,74.45
2019-05-17T23:07:59.433Z,74.61
2019-05-17T23:10:26.665Z,75.08
2019-05-17T23:12:53.956Z,75.52
2019-05-17T23:15:21.129Z,75.79
2019-05-17T23:17:48.220Z,76.00
2019-05-17T23:20:15.528Z,76.36
2019-05-17T23:22:42.773Z,76.68
2019-05-17T23:25:09.971Z,77.14
2019-05-17T23:27:37.213Z,77.33
2019-05-17T23:30:04.751Z,77.65
2019-05-17T23:32:32.215Z,77.97
2019-05-17T23:34:59.451Z,78.08
2019-05-17T23:37:26.631Z,78.07
2019-05-17T23:39:53.725Z,78.38
2019-05-17T23:42:21.110Z,78.81
2019-05-17T23:44:48.159Z,79.20
2019-05-17T23:47:15.314Z,79.31
2019-05-17T23:49:42.512Z,79.63
2019-05-17T23:52:09.692Z,79.47
2019-05-17T23:54:36.922Z,79.09
2019-05-17T23:57:04.179Z,78.71
2019-05-17T23:59:31.312Z,78.88
